Time;durP1;ratioP1;P1;durP2;ratioP2;P2;SDS_P1;SDS_P2;PMS_P1;PMS_P2;Temp;Humidity;BMP_temperature;BMP_pressure;BME280_temperature;BME280_humidity;BME280_pressure;Samples;Min_cycle;Max_cycle;Signal;HPM_P1;HPM_P2
2023/07/27 00:02:15;;;;;;;3.75;0.80;;;18.50;69.90;;;;;;5078829;28;20033;-61
2023/07/27 00:04:41;;;;;;;0.82;0.52;;;18.50;70.00;;;;;;5076436;28;20021;-61
2023/07/27 00:07:07;;;;;;;1.77;0.90;;;18.50;70.00;;;;;;5077591;28;20503;-61
2023/07/27 00:09:32;;;;;;;0.98;0.85;;;18.50;70.00;;;;;;5085068;28;20479;-61
2023/07/27 00:11:58;;;;;;;1.75;0.85;;;18.50;70.00;;;;;;5082337;28;20028;-61
2023/07/27 00:14:24;;;;;;;1.48;0.68;;;18.50;70.00;;;;;;5081854;28;20499;-61
2023/07/27 00:16:49;;;;;;;0.88;0.60;;;18.50;70.00;;;;;;5077176;28;20479;-61
2023/07/27 00:19:16;;;;;;;1.67;0.75;;;18.50;70.00;;;;;;5080174;28;20037;-61
2023/07/27 00:21:42;;;;;;;1.75;0.68;;;18.50;70.00;;;;;;5076489;28;20031;-61
2023/07/27 00:24:07;;;;;;;0.68;0.50;;;18.50;70.10;;;;;;5066059;28;20033;-60
2023/07/27 00:26:33;;;;;;;0.98;0.70;;;18.50;70.10;;;;;;5075878;28;20511;-61
2023/07/27 00:28:59;;;;;;;0.70;0.60;;;18.50;70.20;;;;;;5073581;28;20040;-61
2023/07/27 00:31:24;;;;;;;1.15;0.90;;;18.50;70.30;;;;;;5075786;28;20115;-61
2023/07/27 00:33:50;;;;;;;0.55;0.50;;;18.50;70.40;;;;;;5080045;28;20483;-60
2023/07/27 00:36:16;;;;;;;0.82;0.77;;;18.50;70.30;;;;;;5076838;28;20090;-60
2023/07/27 00:38:41;;;;;;;0.77;0.77;;;18.60;70.30;;;;;;5073360;28;20025;-61
2023/07/27 00:41:08;;;;;;;0.75;0.68;;;18.60;70.30;;;;;;5074838;28;20025;-61
2023/07/27 00:43:33;;;;;;;1.10;0.90;;;18.60;70.30;;;;;;5074579;28;20040;-61
2023/07/27 00:45:59;;;;;;;1.27;1.00;;;18.60;70.40;;;;;;5077656;28;20394;-62
2023/07/27 00:48:25;;;;;;;0.77;0.65;;;18.60;70.40;;;;;;5073811;28;20384;-61
2023/07/27 00:50:53;;;;;;;0.57;0.50;;;18.60;70.60;;;;;;5080595;28;20089;-60
2023/07/27 00:53:19;;;;;;;0.70;0.70;;;18.50;70.50;;;;;;5073977;28;20036;-61
2023/07/27 00:55:46;;;;;;;0.50;0.50;;;18.50;70.60;;;;;;5074286;28;20035;-61
2023/07/27 00:58:12;;;;;;;1.27;0.75;;;18.60;70.60;;;;;;5075318;28;20170;-61
2023/07/27 01:00:42;;;;;;;1.45;1.35;;;18.60;70.60;;;;;;5072302;28;20013;-61
2023/07/27 01:03:08;;;;;;;0.63;0.63;;;18.60;70.70;;;;;;5072807;28;20027;-61
2023/07/27 01:05:34;;;;;;;1.58;0.93;;;18.60;70.80;;;;;;5078138;28;20024;-60
2023/07/27 01:08:00;;;;;;;1.95;1.23;;;18.50;70.80;;;;;;5073713;28;20025;-60
2023/07/27 01:10:49;;;;;;;2.13;1.25;;;18.50;70.80;;;;;;5072844;28;20024;-61
2023/07/27 01:13:26;;;;;;;1.67;1.10;;;18.50;70.80;;;;;;5082946;28;20501;-60
2023/07/27 01:15:58;;;;;;;1.85;1.05;;;18.50;70.80;;;;;;5078969;28;20029;-61
2023/07/27 01:18:37;;;;;;;1.67;1.33;;;18.50;70.90;;;;;;5064488;28;20029;-61
2023/07/27 01:21:19;;;;;;;1.30;0.95;;;18.50;71.20;;;;;;5075004;28;20024;-61
2023/07/27 01:23:53;;;;;;;1.55;1.00;;;18.50;71.20;;;;;;5071478;28;20024;-61
2023/07/27 01:26:37;;;;;;;1.92;1.00;;;18.40;71.30;;;;;;5081018;28;20498;-61
2023/07/27 01:29:27;;;;;;;1.25;1.05;;;18.50;71.70;;;;;;5078518;28;20028;-62
2023/07/27 01:31:54;;;;;;;1.85;1.15;;;18.40;71.80;;;;;;5074849;28;20043;-62
2023/07/27 01:34:32;;;;;;;1.83;0.90;;;18.40;72.00;;;;;;5078675;28;20020;-61
2023/07/27 01:37:09;;;;;;;1.73;1.10;;;18.40;72.30;;;;;;5089143;28;20143;-61
2023/07/27 01:39:40;;;;;;;1.92;1.25;;;18.40;72.60;;;;;;5073559;28;20028;-63
2023/07/27 01:42:08;;;;;;;1.15;0.80;;;18.30;72.80;;;;;;5071213;28;20378;-61
2023/07/27 01:44:35;;;;;;;3.03;1.20;;;18.30;72.90;;;;;;5079296;28;20060;-62
2023/07/27 01:47:03;;;;;;;1.52;1.15;;;18.30;73.20;;;;;;5083111;28;20502;-63
2023/07/27 01:49:30;;;;;;;1.42;1.27;;;18.20;73.40;;;;;;5074697;28;20078;-62
2023/07/27 01:51:58;;;;;;;1.85;1.08;;;18.20;73.80;;;;;;5076887;28;20032;-63
2023/07/27 01:54:26;;;;;;;2.85;1.10;;;18.20;73.90;;;;;;5073504;28;20033;-63
2023/07/27 01:56:54;;;;;;;2.30;0.95;;;18.20;74.00;;;;;;5082576;28;20024;-63
2023/07/27 01:59:21;;;;;;;1.60;1.02;;;18.20;74.20;;;;;;5074127;28;20020;-62
2023/07/27 02:01:48;;;;;;;1.67;1.15;;;18.20;74.20;;;;;;5076834;28;20115;-62
2023/07/27 02:04:14;;;;;;;1.48;0.90;;;18.20;74.30;;;;;;5074841;28;20078;-62
2023/07/27 02:06:40;;;;;;;2.45;1.50;;;18.20;74.60;;;;;;5077144;28;20040;-62
2023/07/27 02:09:05;;;;;;;3.15;1.88;;;18.20;75.10;;;;;;5075239;28;20035;-63
2023/07/27 02:11:31;;;;;;;1.92;1.33;;;18.10;75.30;;;;;;5083411;28;20483;-63
2023/07/27 02:14:05;;;;;;;1.35;0.80;;;18.10;75.40;;;;;;5072522;28;20033;-63
2023/07/27 02:16:34;;;;;;;1.65;1.00;;;18.10;75.70;;;;;;5074045;28;20078;-63
2023/07/27 02:19:01;;;;;;;1.17;1.08;;;18.10;75.80;;;;;;5081015;28;20024;-61
2023/07/27 02:21:30;;;;;;;2.20;1.10;;;18.10;75.90;;;;;;5078458;28;20417;-61
2023/07/27 02:23:57;;;;;;;2.78;0.95;;;18.10;75.90;;;;;;5079365;28;20017;-62
2023/07/27 02:26:23;;;;;;;1.75;0.90;;;18.10;76.00;;;;;;5074436;28;20048;-61
2023/07/27 02:28:49;;;;;;;2.08;0.90;;;18.10;76.10;;;;;;5072968;28;20039;-61
2023/07/27 02:31:14;;;;;;;1.45;0.90;;;18.10;76.10;;;;;;5074287;28;20037;-61
2023/07/27 02:33:40;;;;;;;2.58;1.48;;;18.10;76.10;;;;;;5068483;28;20044;-62
2023/07/27 02:36:05;;;;;;;1.95;1.67;;;18.10;76.40;;;;;;5068957;28;20036;-61
2023/07/27 02:38:31;;;;;;;2.10;1.38;;;18.10;76.50;;;;;;5072027;28;20029;-63
2023/07/27 02:40:57;;;;;;;1.42;1.27;;;18.10;76.60;;;;;;5072051;28;20036;-63
2023/07/27 02:43:23;;;;;;;2.20;1.27;;;18.10;76.80;;;;;;5065819;28;20021;-63
2023/07/27 02:45:48;;;;;;;1.23;1.10;;;18.10;77.00;;;;;;5071390;28;20074;-63
2023/07/27 02:48:14;;;;;;;0.93;0.80;;;18.10;77.00;;;;;;5077856;28;20040;-63
2023/07/27 02:50:49;;;;;;;1.65;1.23;;;18.10;76.90;;;;;;5080089;28;20048;-62
2023/07/27 02:53:15;;;;;;;2.13;1.50;;;18.10;76.90;;;;;;5075776;28;20027;-61
2023/07/27 02:55:41;;;;;;;1.17;1.05;;;18.10;76.90;;;;;;5069198;28;20450;-62
2023/07/27 02:58:06;;;;;;;1.17;1.08;;;18.10;77.00;;;;;;5071703;28;20378;-62
2023/07/27 03:00:32;;;;;;;1.33;1.08;;;18.10;77.40;;;;;;5072626;28;20147;-62
2023/07/27 03:02:58;;;;;;;1.65;1.23;;;18.10;77.60;;;;;;5079253;28;20111;-63
2023/07/27 03:05:23;;;;;;;2.25;1.77;;;18.10;77.60;;;;;;5073923;28;20052;-62
2023/07/27 03:07:49;;;;;;;2.55;1.65;;;18.00;77.60;;;;;;5073926;28;20034;-62
2023/07/27 03:10:15;;;;;;;2.33;1.50;;;18.10;77.70;;;;;;5079933;28;20466;-63
2023/07/27 03:12:41;;;;;;;4.40;1.88;;;18.00;77.70;;;;;;5076673;28;20131;-62
2023/07/27 03:15:07;;;;;;;1.67;1.38;;;18.00;77.80;;;;;;5071296;28;20085;-62
2023/07/27 03:17:33;;;;;;;3.63;1.20;;;18.00;77.80;;;;;;5064764;28;20395;-62
2023/07/27 03:19:58;;;;;;;1.95;1.40;;;18.00;77.90;;;;;;5074821;28;20051;-62
2023/07/27 03:22:24;;;;;;;2.95;1.30;;;18.00;77.90;;;;;;5072823;28;20063;-62
2023/07/27 03:24:50;;;;;;;2.00;1.33;;;18.00;78.00;;;;;;5069476;28;20076;-62
2023/07/27 03:27:16;;;;;;;2.38;1.88;;;18.00;78.10;;;;;;5078242;28;20052;-62
2023/07/27 03:29:42;;;;;;;2.13;1.65;;;18.00;78.10;;;;;;5077290;28;20470;-62
2023/07/27 03:32:07;;;;;;;2.53;1.83;;;18.00;78.30;;;;;;5073018;28;20056;-62
2023/07/27 03:34:33;;;;;;;2.78;2.10;;;18.00;78.40;;;;;;5072551;28;20040;-62
2023/07/27 03:36:58;;;;;;;2.45;1.58;;;17.90;78.40;;;;;;5079637;28;20032;-63
2023/07/27 03:39:24;;;;;;;4.30;2.30;;;17.90;78.50;;;;;;5072762;28;20503;-63
2023/07/27 03:41:50;;;;;;;2.40;1.92;;;17.90;78.60;;;;;;5081976;28;20117;-62
2023/07/27 03:44:15;;;;;;;2.70;1.83;;;17.90;78.70;;;;;;5074758;28;20040;-63
2023/07/27 03:46:41;;;;;;;2.90;1.83;;;17.90;78.70;;;;;;5074539;28;20047;-63
2023/07/27 03:49:07;;;;;;;4.32;1.98;;;17.90;78.70;;;;;;5073234;28;20040;-62
2023/07/27 03:51:32;;;;;;;3.08;1.88;;;17.90;78.80;;;;;;5066767;28;20028;-62
2023/07/27 03:53:58;;;;;;;2.50;1.85;;;17.90;78.80;;;;;;5079813;28;20055;-62
2023/07/27 03:56:24;;;;;;;2.92;2.28;;;17.80;78.90;;;;;;5075059;28;20046;-62
2023/07/27 03:58:50;;;;;;;2.60;1.65;;;17.80;79.00;;;;;;5075389;28;20120;-61
2023/07/27 04:01:16;;;;;;;2.90;2.20;;;17.80;79.00;;;;;;5075313;28;20135;-62
2023/07/27 04:03:41;;;;;;;3.80;1.88;;;17.70;79.20;;;;;;5072868;28;20123;-61
2023/07/27 04:06:07;;;;;;;3.83;2.28;;;17.70;79.30;;;;;;5072804;28;20024;-62
2023/07/27 04:08:32;;;;;;;3.63;2.20;;;17.70;79.50;;;;;;5075673;28;20040;-62
2023/07/27 04:10:58;;;;;;;2.50;2.08;;;17.70;79.60;;;;;;5067633;28;20423;-62
2023/07/27 04:13:24;;;;;;;2.58;1.85;;;17.70;79.50;;;;;;5070306;28;20395;-62
2023/07/27 04:15:49;;;;;;;4.40;1.75;;;17.70;79.60;;;;;;5074944;28;20032;-62
2023/07/27 04:18:15;;;;;;;3.17;2.13;;;17.70;79.60;;;;;;5073176;28;20064;-62
2023/07/27 04:20:41;;;;;;;3.42;2.13;;;17.70;79.60;;;;;;5071570;28;20024;-62
2023/07/27 04:23:06;;;;;;;4.10;2.60;;;17.70;79.70;;;;;;5070325;28;20032;-63
2023/07/27 04:25:32;;;;;;;3.22;2.25;;;17.70;79.90;;;;;;5074632;28;20016;-62
2023/07/27 04:27:58;;;;;;;5.03;2.60;;;17.70;80.00;;;;;;5073212;28;20509;-63
2023/07/27 04:30:23;;;;;;;3.92;2.60;;;17.60;80.10;;;;;;5073053;28;20036;-63
2023/07/27 04:32:49;;;;;;;2.53;1.98;;;17.60;80.20;;;;;;5074616;28;20032;-63
2023/07/27 04:35:15;;;;;;;2.72;2.05;;;17.60;80.30;;;;;;5068570;28;20476;-63
2023/07/27 04:37:40;;;;;;;5.88;2.10;;;17.60;80.40;;;;;;5077603;28;20090;-63
2023/07/27 04:40:06;;;;;;;2.80;1.40;;;17.60;80.30;;;;;;5074897;28;20041;-62
2023/07/27 04:42:32;;;;;;;2.38;2.10;;;17.60;80.20;;;;;;5076448;28;20048;-61
2023/07/27 04:44:58;;;;;;;3.08;2.33;;;17.50;80.20;;;;;;5076444;28;20059;-62
2023/07/27 04:47:23;;;;;;;3.78;1.50;;;17.60;80.30;;;;;;5069254;28;20029;-62
2023/07/27 04:49:49;;;;;;;1.67;1.35;;;17.60;80.30;;;;;;5076437;28;20036;-62
2023/07/27 04:52:14;;;;;;;3.65;1.85;;;17.60;80.30;;;;;;5075632;28;20032;-62
2023/07/27 04:54:40;;;;;;;3.15;1.40;;;17.60;80.50;;;;;;5075557;28;20090;-62
2023/07/27 04:57:06;;;;;;;2.00;1.67;;;17.60;80.60;;;;;;5078541;28;20040;-62
2023/07/27 04:59:32;;;;;;;2.63;1.80;;;17.60;80.60;;;;;;5079027;28;20039;-62
2023/07/27 05:01:57;;;;;;;2.50;1.30;;;17.60;80.60;;;;;;5079338;28;20094;-62
2023/07/27 05:04:23;;;;;;;2.47;1.85;;;17.60;80.70;;;;;;5073182;28;20499;-63
2023/07/27 05:06:49;;;;;;;4.10;1.48;;;17.60;80.80;;;;;;5072670;28;20112;-63
2023/07/27 05:09:16;;;;;;;2.08;1.33;;;17.60;80.90;;;;;;5079282;28;20031;-63
2023/07/27 05:11:41;;;;;;;2.45;1.50;;;17.60;80.90;;;;;;5082543;28;20033;-63
2023/07/27 05:14:07;;;;;;;2.10;1.17;;;17.70;80.80;;;;;;5077325;28;20040;-62
2023/07/27 05:16:33;;;;;;;1.75;1.48;;;17.70;80.60;;;;;;5080798;28;20785;-63
2023/07/27 05:18:58;;;;;;;2.00;1.40;;;17.70;80.70;;;;;;5082518;28;20020;-62
2023/07/27 05:21:24;;;;;;;3.05;1.30;;;17.70;80.90;;;;;;5086450;28;20115;-62
2023/07/27 05:23:50;;;;;;;3.42;1.65;;;17.60;81.10;;;;;;5088082;28;20028;-62
2023/07/27 05:26:16;;;;;;;2.22;1.45;;;17.60;81.30;;;;;;5087879;28;20085;-63
2023/07/27 05:28:41;;;;;;;1.50;1.30;;;17.60;81.40;;;;;;5085458;28;20035;-63
2023/07/27 05:31:07;;;;;;;2.42;1.30;;;17.60;81.50;;;;;;5088607;28;20115;-62
2023/07/27 05:33:33;;;;;;;1.27;0.80;;;17.60;81.50;;;;;;5073554;28;20373;-62
2023/07/27 05:35:59;;;;;;;1.00;0.90;;;17.60;81.50;;;;;;5075987;28;20035;-62
2023/07/27 05:38:24;;;;;;;1.92;1.30;;;17.60;81.50;;;;;;5074067;28;20388;-63
2023/07/27 05:40:50;;;;;;;3.45;1.25;;;17.60;81.30;;;;;;5078952;28;20102;-63
2023/07/27 05:43:16;;;;;;;1.17;0.90;;;17.60;81.40;;;;;;5077534;28;20111;-63
2023/07/27 05:45:41;;;;;;;2.45;1.00;;;17.60;81.80;;;;;;5082361;28;20043;-63
2023/07/27 05:48:07;;;;;;;1.65;0.90;;;17.60;82.50;;;;;;5073087;28;20036;-61
2023/07/27 05:50:34;;;;;;;2.58;1.25;;;17.60;81.90;;;;;;5084117;28;20024;-61
2023/07/27 05:52:59;;;;;;;3.90;1.30;;;17.70;82.00;;;;;;5085517;28;20530;-61
2023/07/27 05:55:25;;;;;;;1.60;0.95;;;17.70;82.10;;;;;;5082961;28;20123;-61
2023/07/27 05:57:51;;;;;;;1.52;1.38;;;17.70;82.00;;;;;;5074373;28;20115;-61
2023/07/27 06:00:17;;;;;;;1.20;0.70;;;17.70;82.10;;;;;;5075144;28;20032;-60
2023/07/27 06:02:43;;;;;;;1.15;0.80;;;17.70;82.10;;;;;;5081530;28;20047;-61
2023/07/27 06:05:09;;;;;;;1.60;1.13;;;17.70;82.10;;;;;;5086403;28;20099;-60
2023/07/27 06:07:34;;;;;;;0.70;0.70;;;17.70;82.10;;;;;;5077930;28;20501;-61
2023/07/27 06:10:00;;;;;;;0.98;0.73;;;17.70;82.10;;;;;;5081888;28;20032;-61
2023/07/27 06:12:26;;;;;;;1.25;1.05;;;17.70;82.10;;;;;;5078684;28;20043;-61
2023/07/27 06:14:51;;;;;;;0.65;0.65;;;17.80;82.00;;;;;;5076337;28;20479;-61
2023/07/27 06:17:17;;;;;;;0.80;0.80;;;17.80;82.00;;;;;;5077976;28;20035;-61
2023/07/27 06:19:43;;;;;;;0.77;0.70;;;17.80;82.10;;;;;;5074353;28;20031;-61
2023/07/27 06:22:09;;;;;;;0.70;0.68;;;17.80;82.00;;;;;;5072432;28;20056;-61
2023/07/27 06:24:34;;;;;;;0.77;0.68;;;17.80;81.90;;;;;;5073370;28;20432;-61
2023/07/27 06:27:00;;;;;;;0.90;0.73;;;17.90;81.90;;;;;;5072527;28;20045;-61
2023/07/27 06:29:26;;;;;;;1.58;1.20;;;17.90;81.90;;;;;;5074228;28;20122;-61
2023/07/27 06:31:51;;;;;;;3.08;1.15;;;17.90;82.00;;;;;;5072217;28;20085;-61
2023/07/27 06:34:17;;;;;;;1.85;0.88;;;17.90;82.30;;;;;;5074186;28;20185;-61
2023/07/27 06:36:43;;;;;;;1.40;0.88;;;17.80;82.40;;;;;;5074497;28;20044;-62
2023/07/27 06:39:09;;;;;;;0.85;0.80;;;17.80;82.10;;;;;;5073018;28;20025;-62
2023/07/27 06:41:34;;;;;;;1.33;0.70;;;17.90;82.50;;;;;;5077095;28;20025;-62
2023/07/27 06:44:00;;;;;;;0.75;0.55;;;17.90;82.50;;;;;;5084216;28;20024;-61
2023/07/27 06:46:26;;;;;;;1.20;1.00;;;17.90;82.50;;;;;;5081573;28;20106;-62
2023/07/27 06:48:52;;;;;;;0.70;0.40;;;18.00;82.40;;;;;;5079868;28;20028;-62
2023/07/27 06:51:18;;;;;;;0.95;0.82;;;18.00;82.40;;;;;;5078970;28;20020;-62
2023/07/27 06:53:44;;;;;;;0.77;0.60;;;18.00;82.50;;;;;;5075817;28;20032;-62
2023/07/27 06:56:10;;;;;;;0.30;0.30;;;18.10;82.50;;;;;;5078861;28;20068;-61
2023/07/27 06:58:35;;;;;;;0.50;0.40;;;18.10;82.50;;;;;;5077496;28;20108;-62
2023/07/27 07:01:01;;;;;;;0.40;0.40;;;18.10;82.40;;;;;;5076293;28;20686;-61
2023/07/27 07:03:26;;;;;;;0.82;0.65;;;18.10;82.50;;;;;;5073595;28;20479;-61
2023/07/27 07:05:55;;;;;;;0.80;0.73;;;18.10;83.00;;;;;;5080002;28;20555;-61
2023/07/27 07:08:21;;;;;;;1.00;0.60;;;18.10;83.10;;;;;;5070972;28;20051;-61
2023/07/27 07:10:47;;;;;;;0.40;0.40;;;18.10;83.10;;;;;;5076148;28;20044;-61
2023/07/27 07:13:12;;;;;;;0.70;0.60;;;18.10;83.00;;;;;;5067181;28;20060;-61
2023/07/27 07:15:38;;;;;;;0.30;0.30;;;18.10;83.10;;;;;;5074971;28;20016;-61
2023/07/27 07:18:04;;;;;;;0.47;0.40;;;18.20;83.10;;;;;;5061292;28;20021;-61
2023/07/27 07:20:30;;;;;;;1.67;0.60;;;18.20;83.10;;;;;;5070064;28;20028;-61
2023/07/27 07:22:55;;;;;;;0.68;0.50;;;18.20;83.20;;;;;;5067485;28;20063;-62
2023/07/27 07:25:21;;;;;;;0.70;0.50;;;18.20;83.50;;;;;;5069380;28;20415;-62
2023/07/27 07:27:46;;;;;;;0.60;0.60;;;18.20;83.80;;;;;;5075803;28;20051;-62
2023/07/27 07:30:12;;;;;;;0.47;0.40;;;18.20;83.80;;;;;;5063218;28;20041;-62
2023/07/27 07:32:38;;;;;;;0.30;0.30;;;18.20;83.70;;;;;;5071227;28;20028;-62
2023/07/27 07:35:04;;;;;;;0.40;0.40;;;18.20;83.80;;;;;;5074435;28;20028;-62
2023/07/27 07:37:29;;;;;;;0.40;0.40;;;18.30;83.90;;;;;;5070555;28;20047;-62
2023/07/27 07:39:55;;;;;;;0.88;0.60;;;18.30;83.90;;;;;;5082451;28;20044;-60
2023/07/27 07:42:21;;;;;;;2.15;0.40;;;18.30;84.10;;;;;;5086309;28;20148;-61
2023/07/27 07:44:47;;;;;;;0.60;0.60;;;18.30;84.00;;;;;;5083796;28;20540;-61
2023/07/27 07:47:13;;;;;;;0.47;0.47;;;18.30;83.90;;;;;;5085977;28;20032;-61
2023/07/27 07:49:38;;;;;;;0.40;0.40;;;18.40;83.70;;;;;;5078465;28;20395;-60
2023/07/27 07:52:04;;;;;;;0.50;0.30;;;18.50;84.10;;;;;;5073790;28;20039;-61
2023/07/27 07:54:31;;;;;;;0.55;0.43;;;18.50;84.00;;;;;;5070733;28;20058;-61
2023/07/27 07:56:56;;;;;;;1.40;0.40;;;18.50;84.00;;;;;;5077329;28;20025;-61
2023/07/27 07:59:23;;;;;;;0.65;0.63;;;18.50;84.40;;;;;;5081929;28;20111;-61
2023/07/27 08:01:49;;;;;;;0.70;0.50;;;18.50;84.60;;;;;;5073045;28;20021;-62
2023/07/27 08:04:15;;;;;;;0.60;0.60;;;18.50;84.70;;;;;;5077392;28;20102;-62
2023/07/27 08:06:41;;;;;;;0.40;0.40;;;18.60;84.90;;;;;;5071780;28;20420;-60
2023/07/27 08:09:07;;;;;;;0.98;0.50;;;18.60;84.90;;;;;;5072334;28;20142;-62
2023/07/27 08:11:33;;;;;;;1.15;0.40;;;18.60;84.80;;;;;;5079378;28;20465;-62
2023/07/27 08:14:02;;;;;;;0.40;0.40;;;18.70;85.00;;;;;;5075265;28;20109;-62
2023/07/27 08:16:30;;;;;;;0.70;0.50;;;18.70;84.80;;;;;;5057715;28;20059;-61
2023/07/27 08:18:56;;;;;;;0.60;0.60;;;18.80;84.70;;;;;;5069947;28;20468;-61
2023/07/27 08:21:21;;;;;;;0.50;0.50;;;18.80;84.60;;;;;;5082155;28;20027;-61
2023/07/27 08:23:47;;;;;;;0.30;0.30;;;18.80;84.60;;;;;;5067395;28;20102;-61
2023/07/27 08:26:14;;;;;;;0.40;0.40;;;18.80;84.70;;;;;;5077944;28;20036;-61
2023/07/27 08:28:40;;;;;;;0.77;0.60;;;18.90;84.70;;;;;;5089203;28;20056;-61
2023/07/27 08:31:06;;;;;;;0.50;0.50;;;18.90;84.50;;;;;;5072842;28;20120;-61
2023/07/27 08:33:32;;;;;;;0.50;0.47;;;19.00;84.30;;;;;;5076479;28;20033;-62
2023/07/27 08:36:00;;;;;;;0.50;0.50;;;19.00;84.30;;;;;;5073538;28;20029;-62
2023/07/27 08:38:26;;;;;;;0.52;0.52;;;19.00;84.40;;;;;;5071898;28;20112;-61
2023/07/27 08:41:00;;;;;;;0.40;0.40;;;19.00;84.50;;;;;;5074523;28;20028;-61
2023/07/27 08:43:27;;;;;;;0.50;0.50;;;19.00;84.50;;;;;;5071124;28;20539;-61
2023/07/27 08:45:53;;;;;;;0.70;0.50;;;19.10;84.50;;;;;;5077505;28;20012;-61
2023/07/27 08:48:19;;;;;;;1.10;0.90;;;19.10;84.50;;;;;;5072256;28;20086;-61
2023/07/27 08:50:47;;;;;;;0.50;0.50;;;19.10;84.80;;;;;;5069562;28;20016;-61
2023/07/27 08:53:14;;;;;;;0.40;0.40;;;19.10;84.80;;;;;;5080765;28;20025;-62
2023/07/27 08:55:40;;;;;;;0.93;0.60;;;19.20;84.60;;;;;;5087466;28;20050;-62
2023/07/27 08:58:07;;;;;;;1.40;0.60;;;19.30;84.60;;;;;;5073989;28;20040;-62
2023/07/27 09:00:33;;;;;;;0.73;0.65;;;19.20;84.90;;;;;;5081141;28;20550;-62
2023/07/27 09:02:59;;;;;;;0.55;0.55;;;19.20;85.30;;;;;;5073501;28;20037;-62
2023/07/27 09:05:39;;;;;;;0.43;0.40;;;19.20;85.40;;;;;;5074463;28;20066;-62
2023/07/27 09:08:10;;;;;;;0.70;0.70;;;19.20;86.10;;;;;;5079877;28;20029;-61
2023/07/27 09:10:37;;;;;;;0.55;0.50;;;19.20;85.30;;;;;;5073776;28;20025;-61
2023/07/27 09:13:03;;;;;;;0.50;0.50;;;19.30;85.30;;;;;;5075013;28;20040;-61
2023/07/27 09:15:29;;;;;;;0.55;0.52;;;19.30;85.70;;;;;;5078708;28;20071;-61
2023/07/27 09:18:01;;;;;;;0.77;0.50;;;19.30;85.60;;;;;;5074455;28;20111;-61
2023/07/27 09:20:30;;;;;;;3.50;1.00;;;19.30;85.60;;;;;;5080450;28;20402;-61
2023/07/27 09:22:59;;;;;;;0.75;0.60;;;19.30;85.60;;;;;;5075267;28;20283;-62
2023/07/27 09:25:24;;;;;;;5.60;0.60;;;19.30;85.90;;;;;;5072986;28;20036;-61
2023/07/27 09:27:55;;;;;;;0.55;0.52;;;19.30;85.80;;;;;;5073290;28;20029;-61
2023/07/27 09:30:22;;;;;;;0.47;0.40;;;19.30;85.80;;;;;;5075922;28;20043;-61
2023/07/27 09:32:48;;;;;;;1.58;0.60;;;19.30;85.70;;;;;;5077183;28;20056;-61
2023/07/27 09:35:16;;;;;;;0.85;0.65;;;19.40;85.60;;;;;;5079409;28;20036;-61
2023/07/27 09:38:00;;;;;;;0.55;0.55;;;19.40;85.60;;;;;;5076489;28;20044;-61
2023/07/27 09:40:25;;;;;;;0.93;0.73;;;19.40;85.80;;;;;;5075011;28;20471;-61
2023/07/27 09:42:51;;;;;;;0.52;0.52;;;19.40;86.30;;;;;;5089232;28;20028;-61
2023/07/27 09:45:19;;;;;;;1.45;0.60;;;19.30;86.80;;;;;;5083975;28;20580;-61
2023/07/27 09:47:46;;;;;;;1.67;0.60;;;19.30;86.90;;;;;;5086690;28;20032;-61
2023/07/27 09:50:11;;;;;;;0.55;0.52;;;19.30;87.00;;;;;;5080583;28;20704;-61
2023/07/27 09:52:39;;;;;;;0.57;0.57;;;19.30;87.00;;;;;;5076384;28;20033;-60
2023/07/27 09:55:06;;;;;;;0.60;0.50;;;19.40;86.90;;;;;;5077683;28;20032;-61
2023/07/27 09:57:31;;;;;;;2.30;0.68;;;19.40;86.60;;;;;;5086407;28;20031;-61
2023/07/27 09:59:57;;;;;;;1.75;1.58;;;19.50;86.50;;;;;;5079890;28;20032;-61
2023/07/27 10:02:23;;;;;;;0.75;0.68;;;19.50;86.50;;;;;;5072083;28;20020;-61
2023/07/27 10:04:50;;;;;;;1.27;0.70;;;19.50;86.60;;;;;;5069344;28;20025;-62
2023/07/27 10:07:20;;;;;;;0.80;0.80;;;19.50;86.90;;;;;;5072607;28;20032;-62
2023/07/27 10:09:47;;;;;;;1.27;0.90;;;19.50;86.90;;;;;;5082318;28;20040;-62
2023/07/27 10:12:29;;;;;;;0.80;0.60;;;19.60;87.00;;;;;;5072684;28;20111;-62
2023/07/27 10:15:27;;;;;;;1.50;0.50;;;19.60;86.80;;;;;;5075970;28;20476;-62
2023/07/27 10:17:59;;;;;;;0.70;0.70;;;19.60;86.80;;;;;;5065090;28;20033;-62
2023/07/27 10:20:35;;;;;;;1.02;0.82;;;19.70;86.70;;;;;;5072182;28;20108;-62
2023/07/27 10:23:20;;;;;;;1.25;1.08;;;19.80;86.50;;;;;;5069490;28;20020;-62
2023/07/27 10:25:54;;;;;;;1.20;1.10;;;19.80;86.40;;;;;;5080328;28;20034;-62
2023/07/27 10:28:40;;;;;;;1.70;1.50;;;19.90;86.30;;;;;;5071898;28;20037;-62
2023/07/27 10:31:26;;;;;;;0.95;0.90;;;19.90;86.40;;;;;;5069522;28;20161;-61
2023/07/27 10:34:15;;;;;;;1.77;1.00;;;19.80;86.60;;;;;;5079096;28;20020;-62
2023/07/27 10:36:57;;;;;;;1.77;1.02;;;19.80;86.70;;;;;;5077325;28;20075;-62
2023/07/27 10:39:33;;;;;;;1.52;0.98;;;19.80;86.80;;;;;;5070059;28;20017;-62
2023/07/27 10:42:02;;;;;;;0.45;0.45;;;19.80;86.70;;;;;;5071229;28;20020;-62
2023/07/27 10:44:43;;;;;;;0.60;0.60;;;19.90;86.40;;;;;;5078290;28;20064;-62
2023/07/27 10:47:10;;;;;;;1.08;0.90;;;20.00;86.20;;;;;;5070480;28;20043;-62
2023/07/27 10:49:47;;;;;;;1.25;0.95;;;20.00;86.10;;;;;;5080564;28;20029;-62
2023/07/27 10:52:18;;;;;;;1.23;0.90;;;20.00;86.30;;;;;;5086192;28;20047;-62
2023/07/27 10:54:45;;;;;;;1.05;0.80;;;20.00;86.30;;;;;;5073298;28;20368;-62
2023/07/27 10:57:12;;;;;;;0.98;0.80;;;20.00;86.40;;;;;;5077887;28;20040;-62
2023/07/27 10:59:56;;;;;;;1.02;0.93;;;20.10;86.40;;;;;;5077324;28;20029;-62
2023/07/27 11:02:29;;;;;;;1.40;1.13;;;20.10;86.20;;;;;;5075351;28;20421;-62
2023/07/27 11:04:59;;;;;;;1.00;0.77;;;20.20;86.20;;;;;;5075962;28;20029;-61
2023/07/27 11:07:30;;;;;;;1.17;0.88;;;20.20;85.90;;;;;;5067378;28;20107;-61
2023/07/27 11:09:57;;;;;;;1.48;0.75;;;20.20;85.80;;;;;;5073015;28;20039;-61
2023/07/27 11:12:23;;;;;;;2.83;1.58;;;20.30;85.80;;;;;;5068976;28;20028;-61
2023/07/27 11:14:50;;;;;;;1.27;0.80;;;20.20;86.00;;;;;;5068996;28;20459;-61
2023/07/27 11:17:16;;;;;;;1.85;1.20;;;20.20;86.20;;;;;;5065706;28;20513;-61
2023/07/27 11:19:42;;;;;;;2.92;1.30;;;20.20;86.30;;;;;;5071740;28;20036;-61
2023/07/27 11:22:08;;;;;;;1.25;1.13;;;20.20;86.20;;;;;;5074850;28;20032;-61
2023/07/27 11:24:34;;;;;;;3.17;1.10;;;20.30;86.20;;;;;;5068761;28;20437;-61
2023/07/27 11:27:00;;;;;;;2.10;1.42;;;20.30;86.20;;;;;;5072979;28;20028;-61
2023/07/27 11:29:27;;;;;;;1.77;1.25;;;20.30;86.20;;;;;;5074326;28;20098;-61
2023/07/27 11:31:59;;;;;;;1.67;0.90;;;20.30;86.20;;;;;;5073345;28;20122;-70
2023/07/27 11:34:26;;;;;;;2.17;1.67;;;20.30;86.00;;;;;;5072858;28;20067;-60
2023/07/27 11:36:57;;;;;;;1.48;1.15;;;20.30;86.10;;;;;;5063680;28;20066;-61
2023/07/27 11:39:23;;;;;;;1.42;1.30;;;20.30;86.10;;;;;;5070632;28;20060;-60
2023/07/27 11:41:50;;;;;;;1.08;0.90;;;20.30;86.10;;;;;;5080279;28;20182;-61
2023/07/27 11:44:21;;;;;;;1.20;1.00;;;20.30;86.10;;;;;;5074433;28;20074;-61
2023/07/27 11:46:50;;;;;;;1.30;0.98;;;20.40;85.80;;;;;;5071399;28;20036;-60
2023/07/27 11:49:18;;;;;;;1.92;1.20;;;20.40;85.90;;;;;;5072671;28;20034;-62
2023/07/27 11:51:45;;;;;;;0.65;0.65;;;20.30;86.10;;;;;;5071184;28;20107;-61
2023/07/27 11:54:20;;;;;;;1.52;1.30;;;20.30;86.20;;;;;;5073508;28;20729;-61
2023/07/27 11:56:50;;;;;;;1.45;1.08;;;20.30;86.30;;;;;;5070955;28;20636;-61
2023/07/27 11:59:15;;;;;;;1.02;0.85;;;20.40;86.10;;;;;;5078159;28;20468;-62
2023/07/27 12:01:42;;;;;;;1.52;1.17;;;20.40;86.10;;;;;;5065990;28;20032;-62
2023/07/27 12:04:08;;;;;;;1.20;1.02;;;20.50;86.10;;;;;;5069977;28;20653;-61
2023/07/27 12:06:33;;;;;;;1.10;0.90;;;20.50;86.20;;;;;;5076752;28;20107;-62
2023/07/27 12:09:00;;;;;;;1.20;1.10;;;20.60;86.10;;;;;;5073618;28;20052;-62
2023/07/27 12:11:27;;;;;;;1.10;1.00;;;20.70;86.00;;;;;;5074172;28;20541;-62
2023/07/27 12:13:52;;;;;;;1.90;1.35;;;20.70;85.90;;;;;;5077421;28;20455;-62
2023/07/27 12:16:18;;;;;;;1.30;1.20;;;20.70;85.80;;;;;;5073927;28;20028;-62
2023/07/27 12:18:45;;;;;;;3.83;1.80;;;20.70;85.90;;;;;;5075100;28;20055;-62
2023/07/27 12:21:12;;;;;;;1.17;1.08;;;20.70;85.80;;;;;;5072888;28;20024;-62
2023/07/27 12:23:38;;;;;;;2.03;1.60;;;20.70;86.00;;;;;;5080939;28;20028;-63
2023/07/27 12:26:04;;;;;;;1.10;0.77;;;20.60;86.00;;;;;;5077465;28;20028;-62
2023/07/27 12:28:33;;;;;;;2.00;0.98;;;20.60;86.00;;;;;;5037880;28;1160305;-62
2023/07/27 12:30:59;;;;;;;2.53;1.52;;;20.70;86.10;;;;;;5074595;28;20033;-62
2023/07/27 12:33:26;;;;;;;1.50;0.93;;;20.70;85.90;;;;;;5077294;28;20040;-61
2023/07/27 12:35:53;;;;;;;1.45;1.13;;;20.70;85.80;;;;;;5070071;28;20128;-62
2023/07/27 12:38:19;;;;;;;0.75;0.75;;;20.80;85.70;;;;;;5075182;28;20399;-62
2023/07/27 12:40:46;;;;;;;2.63;1.42;;;20.90;85.60;;;;;;5075121;28;20394;-62
2023/07/27 12:43:12;;;;;;;1.85;1.10;;;20.90;85.60;;;;;;5084546;28;20036;-62
2023/07/27 12:45:39;;;;;;;1.58;1.20;;;20.90;85.70;;;;;;5084732;28;20048;-62
2023/07/27 12:48:05;;;;;;;1.13;0.65;;;20.90;85.80;;;;;;5076185;28;20535;-62
2023/07/27 12:50:31;;;;;;;1.20;1.10;;;20.90;85.80;;;;;;5077102;28;20032;-61